ADDS METAR Data INFO
IDs: Format: Raw Decoded Include TAF

Data at: 0504 UTC 23 May 2017

KPRX 230455Z 15004KT 10SM CLR 16/13 A2994 RMK AO1
KPRX 230435Z 15003KT 10SM CLR 16/13 A2994 RMK AO1
KPRX 230415Z 15005KT 10SM CLR 16/13 A2993 RMK AO1
KPRX 230355Z 16003KT 10SM CLR 16/13 A2994 RMK AO1
KPRX 230335Z 13005KT 10SM CLR 17/13 A2994 RMK AO1
KPRX 230315Z 14004KT 10SM CLR 17/13 A2996 RMK AO1
KPRX 230255Z 15003KT 10SM CLR 17/13 A2996 RMK AO1 52003
KPRX 230235Z 15004KT 10SM CLR 17/13 A2995 RMK AO1
KPRX 230215Z 14005KT 10SM CLR 17/13 A2994 RMK AO1
KPRX 230155Z 16005KT 10SM CLR 18/13 A2995 RMK AO1
KPRX 230135Z 14005KT 10SM CLR 18/12 A2995 RMK AO1
KPRX 230115Z 13009KT 10SM CLR 19/12 A2994 RMK AO1
KPRX 230055Z 13010KT 10SM CLR 19/13 A2994 RMK AO1
KPRX 230035Z 14010KT 10SM CLR 20/13 A2994 RMK AO1
KPRX 230015Z 16010KT 10SM BKN050 21/14 A2994 RMK AO1
KPRX 222355Z 16010KT 10SM OVC050 22/14 A2995 RMK AO1 10250 20220 57007
KPRX 222335Z 16013KT 10SM FEW044 OVC050 22/13 A2995 RMK AO1
KPRX 222315Z 12008KT 10SM FEW041 OVC050 23/14 A2995 RMK AO1
KPRX 222255Z 18010KT 10SM SCT041 OVC050 23/13 A2995 RMK AO1
KPRX 222235Z 14009KT 10SM FEW043 OVC050 23/14 A2996 RMK AO1
KPRX 222215Z 13009KT 10SM SCT044 OVC050 24/14 A2997 RMK AO1
KPRX 222155Z 11006KT 10SM OVC044 23/14 A2997 RMK AO1
KPRX 222135Z 16007KT 10SM BKN046 OVC055 24/13 A2997 RMK AO1
KPRX 222115Z 16012G17KT 10SM BKN046 BKN050 24/14 A2997 RMK AO1
KPRX 222055Z 14013G19KT 10SM FEW050 25/13 A2997 RMK AO1 57027
KPRX 222035Z 14008KT 10SM FEW050 24/13 A2998 RMK AO1
KPRX 222015Z 13008G17KT 10SM CLR 25/13 A2999 RMK AO1
KPRX 221955Z 14012G16KT 10SM CLR 25/13 A3000 RMK AO1
KPRX 221935Z 11013KT 7SM CLR 24/13 A3000 RMK AO1
KPRX 221915Z 13005KT 10SM CLR 24/13 A3003 RMK AO1
KPRX 221855Z 11009G16KT 10SM CLR 24/13 A3003 RMK AO1
KPRX 221835Z 14006G14KT 10SM CLR 24/13 A3004 RMK AO1
KPRX 221815Z 14008KT 060V160 10SM CLR 24/13 A3005 RMK AO1
KPRX 221755Z 11007G14KT 10SM CLR 24/13 A3005 RMK AO1 10240 20160 57020
KPRX 221735Z 12009KT 10SM CLR 24/12 A3006 RMK AO1
KPRX 221715Z 14008KT 070V160 10SM CLR 23/12 A3006 RMK AO1
KPRX 221655Z 12010G15KT 10SM CLR 23/12 A3007 RMK AO1
KPRX 221635Z 11011G14KT 10SM CLR 23/12 A3007 RMK AO1
KPRX 221615Z 11013G16KT 10SM CLR 23/13 A3008 RMK AO1
KPRX 221555Z 11011G16KT 10SM CLR 23/13 A3009 RMK AO1
KPRX 221535Z 10011KT 10SM FEW028 SCT065 22/14 A3010 RMK AO1
KPRX 221515Z 12009KT 10SM FEW028 BKN065 21/14 A3010 RMK AO1
KPRX 221455Z 13010KT 10SM OVC065 21/14 A3011 RMK AO1 54000
KPRX 221435Z 12011KT 10SM BKN065 21/14 A3011 RMK AO1
KPRX 221415Z 11009KT 10SM SCT055 21/13 A3010 RMK AO1
KPRX 221355Z 13011KT 10SM CLR 21/13 A3010 RMK AO1
KPRX 221335Z 15005KT 10SM FEW055 18/14 A3010 RMK AO1
KPRX 221315Z 12004KT 10SM FEW055 17/14 A3010 RMK AO1
KPRX 221255Z 11005KT 10SM CLR 17/13 A3010 RMK AO1
KPRX 221235Z 10004KT 10SM CLR 17/13 A3011 RMK AO1
KPRX 221215Z 10003KT 10SM CLR 17/13 A3012 RMK AO1
KPRX 221155Z 09005KT 10SM CLR 16/13 A3011 RMK AO1 10180 20160 54000
KPRX 221135Z 08003KT 10SM CLR 16/13 A3011 RMK AO1
KPRX 221115Z 12007KT 10SM CLR 16/13 A3010 RMK AO1
KPRX 221055Z 14003KT 10SM CLR 17/13 A3011 RMK AO1
KPRX 221035Z 15004KT 10SM CLR 17/12 A3011 RMK AO1
KPRX 221015Z 12005KT 10SM CLR 17/12 A3011 RMK AO1
KPRX 220955Z 09003KT 10SM CLR 17/12 A3011 RMK AO1
KPRX 220935Z 09004KT 10SM CLR 17/12 A3011 RMK AO1
KPRX 220915Z 05004KT 10SM FEW120 17/12 A3011 RMK AO1
KPRX 220855Z 09005KT 10SM FEW110 17/12 A3011 RMK AO1 57010
KPRX 220835Z 02006KT 10SM CLR 17/12 A3012 RMK AO1
KPRX 220815Z 09006KT 10SM CLR 17/12 A3011 RMK AO1
KPRX 220755Z 05005KT 10SM CLR 17/12 A3012 RMK AO1
KPRX 220735Z 10004KT 10SM CLR 17/12 A3012 RMK AO1
KPRX 220715Z 13005KT 10SM CLR 17/12 A3013 RMK AO1
KPRX 220655Z 00000KT 10SM SCT110 17/12 A3014 RMK AO1
KPRX 220635Z 21003KT 10SM BKN110 17/12 A3015 RMK AO1
KPRX 220615Z 00000KT 10SM SCT100 18/12 A3014 RMK AO1
KPRX 220555Z 00000KT 10SM FEW100 18/12 A3014 RMK AO1 10230 20170 402600150 52003
KPRX 220535Z 11003KT 10SM CLR 18/11 A3013 RMK AO1
KPRX 220515Z 04005KT 10SM CLR 18/10 A3012 RMK AO1
KPRX 220455Z 06007KT 10SM CLR 18/10 A3011 RMK AO1
KPRX 220435Z 05008KT 10SM CLR 19/10 A3011 RMK AO1
KPRX 220415Z 04008KT 10SM CLR 19/09 A3011 RMK AO1
KPRX 220355Z 04008KT 10SM CLR 19/10 A3012 RMK AO1
KPRX 220335Z 03009KT 10SM CLR 19/10 A3012 RMK AO1
KPRX 220315Z 03009KT 10SM CLR 19/10 A3012 RMK AO1
KPRX 220255Z 04007KT 10SM CLR 19/10 A3013 RMK AO1 52014
KPRX 220235Z 04006KT 10SM CLR 19/10 A3012 RMK AO1
KPRX 220215Z 04007KT 10SM CLR 19/10 A3011 RMK AO1
KPRX 220155Z 03006KT 10SM CLR 19/10 A3009 RMK AO1
KPRX 220135Z 03007KT 10SM CLR 20/11 A3010 RMK AO1
KPRX 220115Z 04006KT 10SM CLR 21/11 A3010 RMK AO1
KPRX 220055Z 02006KT 10SM CLR 21/12 A3010 RMK AO1
KPRX 220035Z 36005KT 10SM CLR 22/12 A3009 RMK AO1
KPRX 220015Z 36006KT 10SM CLR 23/11 A3009 RMK AO1
KPRX 212355Z 01008KT 10SM CLR 23/12 A3009 RMK AO1 10260 20230 57010
KPRX 212335Z 01007KT 10SM CLR 24/11 A3010 RMK AO1
KPRX 212315Z 06006KT 10SM CLR 24/10 A3010 RMK AO1
KPRX 212255Z 04007KT 10SM CLR 24/10 A3010 RMK AO1
KPRX 212235Z 07006KT 10SM CLR 25/10 A3010 RMK AO1
KPRX 212215Z 05007KT 10SM CLR 25/09 A3010 RMK AO1
KPRX 212155Z 04009KT 10SM CLR 26/11 A3010 RMK AO1
KPRX 212135Z 03009G15KT 10SM CLR 26/10 A3010 RMK AO1
KPRX 212115Z 04009KT 10SM CLR 26/11 A3010 RMK AO1
KPRX 212055Z 02009KT 10SM CLR 26/11 A3012 RMK AO1 57010
KPRX 212035Z 04008KT 10SM CLR 26/11 A3013 RMK AO1
KPRX 212015Z 04007KT 10SM CLR 25/10 A3012 RMK AO1
KPRX 211955Z 03011G16KT 10SM CLR 25/10 A3012 RMK AO1
KPRX 211935Z 02009KT 10SM CLR 25/11 A3013 RMK AO1
KPRX 211915Z 05009G16KT 10SM CLR 25/11 A3015 RMK AO1
KPRX 211855Z 01010G14KT 10SM CLR 25/11 A3015 RMK AO1
KPRX 211835Z 04012G16KT 10SM CLR 24/10 A3015 RMK AO1
KPRX 211815Z 01011G16KT 360V060 10SM CLR 24/12 A3015 RMK AO1
KPRX 211755Z 03010KT 10SM FEW055 23/11 A3015 RMK AO1 10230 20150 57010
KPRX 211735Z 03011G19KT 10SM CLR 23/11 A3015 RMK AO1
KPRX 211715Z 04008G14KT 10SM CLR 22/11 A3017 RMK AO1


Page loaded:  05:04 UTC  |   10:04 PM Pacific  |   11:04 PM Mountain  |   12:04 AM Central  |   01:04 AM Eastern

 

ADVISORIES

FORECASTS

FORECASTS

OBSERVATIONS

USER TOOLS

ABOUT US